Time;durP1;ratioP1;P1;durP2;ratioP2;P2;SDS_P1;SDS_P2;PMS_P1;PMS_P2;Temp;Humidity;BMP_temperature;BMP_pressure;BME280_temperature;BME280_humidity;BME280_pressure;Samples;Min_cycle;Max_cycle;Signal;HPM_P1;HPM_P2
2022/01/29 00:01:16;;;;;;;77.25;36.28;;;;;;;;;;4999596;28;89003;-70
2022/01/29 00:03:43;;;;;;;72.32;37.70;;;;;;;;;;5006506;28;90570;-70
2022/01/29 00:06:09;;;;;;;80.30;38.33;;;;;;;;;;4999617;28;90120;-70
2022/01/29 00:08:35;;;;;;;79.97;38.20;;;;;;;;;;4996194;28;88876;-70
2022/01/29 00:11:09;;;;;;;70.38;36.88;;;;;;;;;;4997060;28;90436;-70
2022/01/29 00:13:35;;;;;;;78.32;36.60;;;;;;;;;;5000395;28;88911;-70
2022/01/29 00:16:02;;;;;;;78.32;37.78;;;;;;;;;;4997933;28;91162;-70
2022/01/29 00:18:28;;;;;;;71.03;35.53;;;;;;;;;;4999311;28;89607;-70
2022/01/29 00:20:54;;;;;;;78.18;37.88;;;;;;;;;;5004990;28;90116;-70
2022/01/29 00:23:21;;;;;;;74.07;36.85;;;;;;;;;;4996031;28;88986;-70
2022/01/29 00:25:47;;;;;;;75.55;34.85;;;;;;;;;;4996749;28;89147;-70
2022/01/29 00:28:14;;;;;;;65.85;35.22;;;;;;;;;;4996895;28;88832;-70
2022/01/29 00:30:43;;;;;;;78.95;37.05;;;;;;;;;;4997707;28;89606;-70
2022/01/29 00:33:09;;;;;;;67.10;34.47;;;;;;;;;;4995981;28;89480;-70
2022/01/29 00:35:35;;;;;;;58.10;28.92;;;;;;;;;;4994865;28;89933;-70
2022/01/29 00:38:02;;;;;;;73.68;35.10;;;;;;;;;;5009722;28;89628;-70
2022/01/29 00:40:28;;;;;;;78.63;38.92;;;;;;;;;;4996154;28;91084;-70
2022/01/29 00:42:55;;;;;;;66.93;33.90;;;;;;;;;;5007605;28;89705;-70
2022/01/29 00:45:21;;;;;;;71.45;34.08;;;;;;;;;;5014544;28;89423;-70
2022/01/29 00:47:47;;;;;;;70.25;34.45;;;;;;;;;;5003400;28;89698;-70
2022/01/29 00:50:13;;;;;;;69.78;32.55;;;;;;;;;;4996024;28;89055;-70
2022/01/29 00:52:40;;;;;;;72.78;32.20;;;;;;;;;;5004605;28;89081;-70
2022/01/29 00:55:07;;;;;;;70.13;32.47;;;;;;;;;;4995525;28;90101;-70
2022/01/29 00:57:33;;;;;;;75.45;33.75;;;;;;;;;;4999466;28;89657;-70
2022/01/29 01:00:00;;;;;;;68.32;31.33;;;;;;;;;;4998093;28;89467;-70
2022/01/29 01:02:26;;;;;;;68.72;32.33;;;;;;;;;;4995974;28;89489;-70
2022/01/29 01:04:53;;;;;;;71.00;33.63;;;;;;;;;;4996245;28;89508;-70
2022/01/29 01:07:19;;;;;;;65.05;32.13;;;;;;;;;;5004920;28;90121;-70
2022/01/29 01:09:45;;;;;;;66.60;29.73;;;;;;;;;;4995841;28;89394;-70
2022/01/29 01:12:12;;;;;;;57.85;30.42;;;;;;;;;;4993662;28;89057;-70
2022/01/29 01:14:38;;;;;;;61.85;28.38;;;;;;;;;;4991316;28;88995;-70
2022/01/29 01:17:04;;;;;;;59.03;28.90;;;;;;;;;;5004770;28;89259;-70
2022/01/29 01:19:31;;;;;;;59.75;30.33;;;;;;;;;;5012354;28;89051;-71
2022/01/29 01:21:57;;;;;;;56.67;28.88;;;;;;;;;;4997917;28;90150;-70
2022/01/29 01:24:24;;;;;;;60.47;29.70;;;;;;;;;;4995220;28;89029;-70
2022/01/29 01:26:50;;;;;;;58.85;28.73;;;;;;;;;;5001691;28;90263;-70
2022/01/29 01:29:17;;;;;;;65.30;28.75;;;;;;;;;;4994987;28;89628;-70
2022/01/29 01:31:45;;;;;;;55.22;26.90;;;;;;;;;;4993956;28;89636;-70
2022/01/29 01:34:16;;;;;;;59.45;32.03;;;;;;;;;;4998885;28;91083;-70
2022/01/29 01:36:48;;;;;;;59.50;29.65;;;;;;;;;;4999031;28;89669;-70
2022/01/29 01:39:19;;;;;;;57.28;30.95;;;;;;;;;;5000365;28;89717;-70
2022/01/29 01:41:55;;;;;;;50.25;27.65;;;;;;;;;;4995713;28;88862;-70
2022/01/29 01:44:21;;;;;;;55.90;28.20;;;;;;;;;;5000832;28;89395;-70
2022/01/29 01:46:48;;;;;;;52.40;28.83;;;;;;;;;;5001504;28;89009;-70
2022/01/29 01:49:16;;;;;;;68.03;29.33;;;;;;;;;;4995192;28;89348;-70
2022/01/29 01:51:43;;;;;;;53.90;29.05;;;;;;;;;;4995619;28;89158;-70
2022/01/29 01:54:09;;;;;;;61.85;29.88;;;;;;;;;;4994503;28;90366;-70
2022/01/29 01:56:35;;;;;;;58.03;29.40;;;;;;;;;;5003152;28;90458;-71
2022/01/29 01:59:02;;;;;;;54.97;26.60;;;;;;;;;;4994170;28;89703;-70
2022/01/29 02:01:28;;;;;;;52.33;28.20;;;;;;;;;;5001042;28;90040;-70
2022/01/29 02:03:54;;;;;;;50.03;27.85;;;;;;;;;;5008044;28;89122;-70
2022/01/29 02:06:21;;;;;;;58.47;29.00;;;;;;;;;;5009625;28;88831;-70
2022/01/29 02:08:47;;;;;;;52.75;27.08;;;;;;;;;;4994180;28;89395;-70
2022/01/29 02:11:14;;;;;;;54.28;27.58;;;;;;;;;;4995722;28;90651;-70
2022/01/29 02:13:40;;;;;;;50.33;26.45;;;;;;;;;;4993901;28;90101;-70
2022/01/29 02:16:07;;;;;;;48.50;25.35;;;;;;;;;;4998015;28;89502;-70
2022/01/29 02:18:34;;;;;;;48.33;26.17;;;;;;;;;;5002583;28;90061;-70
2022/01/29 02:21:02;;;;;;;40.60;24.70;;;;;;;;;;4995526;28;90489;-70
2022/01/29 02:23:28;;;;;;;38.83;23.52;;;;;;;;;;4994125;28;89687;-70
2022/01/29 02:25:55;;;;;;;40.63;22.20;;;;;;;;;;4995562;28;89014;-70
2022/01/29 02:28:23;;;;;;;36.92;22.83;;;;;;;;;;5005148;28;90001;-70
2022/01/29 02:31:00;;;;;;;40.70;22.52;;;;;;;;;;5003860;28;89212;-70
2022/01/29 02:33:27;;;;;;;36.20;21.33;;;;;;;;;;5005674;28;90017;-70
2022/01/29 02:35:54;;;;;;;32.53;19.75;;;;;;;;;;5000162;28;89334;-70
2022/01/29 02:38:22;;;;;;;41.35;22.20;;;;;;;;;;5011208;28;90060;-70
2022/01/29 02:40:51;;;;;;;35.78;19.23;;;;;;;;;;5014277;28;89114;-70
2022/01/29 02:43:19;;;;;;;32.78;20.00;;;;;;;;;;5005087;28;90546;-70
2022/01/29 02:45:46;;;;;;;35.75;20.73;;;;;;;;;;4997272;28;89244;-70
2022/01/29 02:48:13;;;;;;;34.28;19.67;;;;;;;;;;5011482;28;91198;-70
2022/01/29 02:50:39;;;;;;;31.50;20.45;;;;;;;;;;4998420;28;88957;-70
2022/01/29 02:53:06;;;;;;;27.95;16.75;;;;;;;;;;4995572;28;88812;-70
2022/01/29 02:55:32;;;;;;;32.10;19.48;;;;;;;;;;4997866;28;89442;-70
2022/01/29 02:57:59;;;;;;;29.92;18.52;;;;;;;;;;5004126;28;89014;-70
2022/01/29 03:00:25;;;;;;;27.45;17.98;;;;;;;;;;5008061;28;88891;-70
2022/01/29 03:02:52;;;;;;;27.00;19.02;;;;;;;;;;5001802;28;89268;-70
2022/01/29 03:05:18;;;;;;;32.10;19.13;;;;;;;;;;5000315;28;89023;-70
2022/01/29 03:07:45;;;;;;;30.10;19.30;;;;;;;;;;5008272;28;89866;-70
2022/01/29 03:10:11;;;;;;;37.88;21.17;;;;;;;;;;5000367;28;89532;-70
2022/01/29 03:12:40;;;;;;;38.90;20.60;;;;;;;;;;5001097;28;90875;-70
2022/01/29 03:15:07;;;;;;;33.90;21.48;;;;;;;;;;4991370;28;89019;-70
2022/01/29 03:17:33;;;;;;;34.33;22.80;;;;;;;;;;5001445;28;88836;-70
2022/01/29 03:20:00;;;;;;;39.38;21.60;;;;;;;;;;4996132;28;89915;-70
2022/01/29 03:22:26;;;;;;;37.70;22.17;;;;;;;;;;4993425;28;88970;-70
2022/01/29 03:24:52;;;;;;;35.65;21.73;;;;;;;;;;4996371;28;89050;-70
2022/01/29 03:27:19;;;;;;;42.10;21.17;;;;;;;;;;5007601;28;88811;-70
2022/01/29 03:29:45;;;;;;;46.17;23.63;;;;;;;;;;5003498;28;89656;-70
2022/01/29 03:32:11;;;;;;;43.30;23.13;;;;;;;;;;5004520;28;88911;-70
2022/01/29 03:34:37;;;;;;;48.33;23.67;;;;;;;;;;5007180;28;89650;-70
2022/01/29 03:37:04;;;;;;;43.40;22.27;;;;;;;;;;4995505;28;89792;-70
2022/01/29 03:39:30;;;;;;;45.53;22.20;;;;;;;;;;4996688;28;88827;-70
2022/01/29 03:42:03;;;;;;;47.13;24.10;;;;;;;;;;4999972;28;92127;-70
2022/01/29 03:44:29;;;;;;;49.47;24.10;;;;;;;;;;4997227;28;89111;-70
2022/01/29 03:46:55;;;;;;;59.53;25.70;;;;;;;;;;4997244;28;88967;-71
2022/01/29 03:49:22;;;;;;;59.78;24.73;;;;;;;;;;4984743;28;89126;-71
2022/01/29 03:51:49;;;;;;;56.63;24.55;;;;;;;;;;4997983;28;88960;-70
2022/01/29 03:54:15;;;;;;;56.15;24.10;;;;;;;;;;5015101;28;90970;-70
2022/01/29 03:56:41;;;;;;;52.28;24.30;;;;;;;;;;4996386;28;89024;-70
2022/01/29 03:59:08;;;;;;;46.47;22.92;;;;;;;;;;4996373;28;89087;-70
2022/01/29 04:01:34;;;;;;;62.63;24.75;;;;;;;;;;5009165;28;89318;-70
2022/01/29 04:04:00;;;;;;;65.03;24.27;;;;;;;;;;4996215;28;89974;-70
2022/01/29 04:06:27;;;;;;;68.05;24.13;;;;;;;;;;4997087;28;91173;-70
2022/01/29 04:08:53;;;;;;;55.70;23.48;;;;;;;;;;4995868;28;88800;-70
2022/01/29 04:11:21;;;;;;;58.83;23.90;;;;;;;;;;4995624;28;88983;-71
2022/01/29 04:13:48;;;;;;;64.47;23.05;;;;;;;;;;4997676;28;88910;-71
2022/01/29 04:16:16;;;;;;;53.42;24.17;;;;;;;;;;5006310;28;89487;-70
2022/01/29 04:18:43;;;;;;;66.72;24.30;;;;;;;;;;4996455;28;91198;-70
2022/01/29 04:21:09;;;;;;;59.05;25.02;;;;;;;;;;4995990;28;89439;-70
2022/01/29 04:23:35;;;;;;;58.25;25.08;;;;;;;;;;5001567;28;89094;-70
2022/01/29 04:26:03;;;;;;;64.07;25.35;;;;;;;;;;5004693;28;90198;-70
2022/01/29 04:28:33;;;;;;;54.05;24.63;;;;;;;;;;5015951;28;90675;-71
2022/01/29 04:31:09;;;;;;;57.75;24.88;;;;;;;;;;5002287;28;89054;-70
2022/01/29 04:33:35;;;;;;;60.67;24.42;;;;;;;;;;5009623;28;88911;-70
2022/01/29 04:36:04;;;;;;;49.80;23.95;;;;;;;;;;5011465;28;89389;-70
2022/01/29 04:38:31;;;;;;;54.30;23.23;;;;;;;;;;4999102;28;89798;-70
2022/01/29 04:41:00;;;;;;;51.25;22.38;;;;;;;;;;4995035;28;89925;-70
2022/01/29 04:43:27;;;;;;;51.60;23.75;;;;;;;;;;5009250;28;89175;-70
2022/01/29 04:45:53;;;;;;;53.40;22.33;;;;;;;;;;4995621;28;90134;-70
2022/01/29 04:48:19;;;;;;;61.97;23.15;;;;;;;;;;4997599;28;89251;-70
2022/01/29 04:50:45;;;;;;;44.55;20.70;;;;;;;;;;4997485;28;89322;-70
2022/01/29 04:53:12;;;;;;;53.13;22.50;;;;;;;;;;4995414;28;89073;-70
2022/01/29 04:55:38;;;;;;;58.30;23.52;;;;;;;;;;4995249;28;90467;-70
2022/01/29 04:58:05;;;;;;;67.93;24.88;;;;;;;;;;4998157;28;88787;-70
2022/01/29 05:00:32;;;;;;;61.10;24.63;;;;;;;;;;5004323;28;89153;-70
2022/01/29 05:03:05;;;;;;;60.10;23.25;;;;;;;;;;5002842;28;88899;-70
2022/01/29 05:05:31;;;;;;;49.20;24.80;;;;;;;;;;5010293;28;88828;-70
2022/01/29 05:07:57;;;;;;;55.38;23.90;;;;;;;;;;5010730;28;88852;-70
2022/01/29 05:10:24;;;;;;;50.22;24.48;;;;;;;;;;4994752;28;88931;-70
2022/01/29 05:12:58;;;;;;;47.67;24.23;;;;;;;;;;5004643;28;89911;-70
2022/01/29 05:28:57;;;;;;;46.60;24.38;;;;;;;;;;4994589;28;89665;-70
2022/01/29 05:31:23;;;;;;;49.72;23.33;;;;;;;;;;4995096;28;88910;-70
2022/01/29 05:33:49;;;;;;;55.03;24.33;;;;;;;;;;4995637;28;90967;-70
2022/01/29 05:36:16;;;;;;;45.03;22.77;;;;;;;;;;4999662;28;90648;-70
2022/01/29 05:38:43;;;;;;;46.05;22.40;;;;;;;;;;5003600;28;88864;-70
2022/01/29 05:41:09;;;;;;;42.42;22.27;;;;;;;;;;5005669;28;89404;-70
2022/01/29 05:43:36;;;;;;;45.72;20.52;;;;;;;;;;4999312;28;89238;-70
2022/01/29 05:46:02;;;;;;;48.30;21.60;;;;;;;;;;4994047;28;89804;-70
2022/01/29 05:48:29;;;;;;;34.47;19.20;;;;;;;;;;4994931;28;89403;-70
2022/01/29 05:50:55;;;;;;;37.38;19.63;;;;;;;;;;4994506;28;89309;-70
2022/01/29 05:53:22;;;;;;;35.05;19.20;;;;;;;;;;4995618;28;88863;-70
2022/01/29 05:55:48;;;;;;;42.20;20.25;;;;;;;;;;4993966;28;88995;-70
2022/01/29 05:58:14;;;;;;;39.17;19.75;;;;;;;;;;4994864;28;88790;-70
2022/01/29 06:00:40;;;;;;;42.65;17.88;;;;;;;;;;5000619;28;90874;-70
2022/01/29 06:03:08;;;;;;;46.80;18.70;;;;;;;;;;5009451;28;89486;-70
2022/01/29 06:05:35;;;;;;;37.08;17.52;;;;;;;;;;5006669;28;89262;-70
2022/01/29 06:08:01;;;;;;;49.50;20.08;;;;;;;;;;5006079;28;89393;-70
2022/01/29 06:10:28;;;;;;;36.33;18.30;;;;;;;;;;4999715;28;89212;-70
2022/01/29 06:12:58;;;;;;;37.35;17.15;;;;;;;;;;5006807;28;89275;-70
2022/01/29 06:15:25;;;;;;;42.25;16.98;;;;;;;;;;5014197;28;89386;-70
2022/01/29 06:17:51;;;;;;;37.33;15.35;;;;;;;;;;5001291;28;89948;-70
2022/01/29 06:20:17;;;;;;;33.33;14.57;;;;;;;;;;4997306;28;90894;-70
2022/01/29 06:22:44;;;;;;;33.08;14.82;;;;;;;;;;5006619;28;89270;-70
2022/01/29 06:25:10;;;;;;;37.30;14.25;;;;;;;;;;5004017;28;90081;-70
2022/01/29 06:27:36;;;;;;;29.10;13.82;;;;;;;;;;5017935;28;89439;-70
2022/01/29 06:30:03;;;;;;;38.60;15.98;;;;;;;;;;5005326;28;89047;-70
2022/01/29 06:32:29;;;;;;;32.63;15.40;;;;;;;;;;5000242;28;90064;-70
2022/01/29 06:34:56;;;;;;;31.88;16.10;;;;;;;;;;4996825;28;89011;-70
2022/01/29 06:37:22;;;;;;;39.72;15.98;;;;;;;;;;4997794;28;90109;-71
2022/01/29 06:39:48;;;;;;;37.40;16.63;;;;;;;;;;4995761;28;89431;-70
2022/01/29 06:42:15;;;;;;;45.78;17.05;;;;;;;;;;4989038;28;90993;-70
2022/01/29 06:44:41;;;;;;;37.22;17.23;;;;;;;;;;4997100;28;88931;-71
2022/01/29 06:47:07;;;;;;;36.13;17.70;;;;;;;;;;5010000;28;88771;-71
2022/01/29 06:49:33;;;;;;;34.42;17.45;;;;;;;;;;5012043;28;90261;-71
2022/01/29 06:52:00;;;;;;;35.00;17.50;;;;;;;;;;5000462;28;89828;-71
2022/01/29 06:54:26;;;;;;;38.70;18.80;;;;;;;;;;4996883;28;89609;-71
2022/01/29 06:56:52;;;;;;;37.25;18.92;;;;;;;;;;4996032;28;88913;-71
2022/01/29 06:59:18;;;;;;;49.70;20.50;;;;;;;;;;4997130;28;90552;-71
2022/01/29 07:01:45;;;;;;;37.83;20.13;;;;;;;;;;5010213;28;89640;-70
2022/01/29 07:04:11;;;;;;;39.03;19.85;;;;;;;;;;5007666;28;88935;-70
2022/01/29 07:06:37;;;;;;;40.05;20.08;;;;;;;;;;5003874;28;89616;-70
2022/01/29 07:09:04;;;;;;;36.15;19.08;;;;;;;;;;5003876;28;88978;-70
2022/01/29 07:11:30;;;;;;;46.75;20.35;;;;;;;;;;4997115;28;90727;-70
2022/01/29 07:14:03;;;;;;;37.25;21.13;;;;;;;;;;4999599;28;89878;-70
2022/01/29 07:16:31;;;;;;;42.05;21.55;;;;;;;;;;4994792;28;89007;-70
2022/01/29 07:18:57;;;;;;;38.95;20.80;;;;;;;;;;4993713;28;88951;-70
2022/01/29 07:21:23;;;;;;;45.97;20.92;;;;;;;;;;4989488;28;89342;-70
2022/01/29 07:23:50;;;;;;;39.45;20.63;;;;;;;;;;4996850;28;89854;-70
2022/01/29 07:26:16;;;;;;;37.33;21.17;;;;;;;;;;5002638;28;88991;-70
2022/01/29 07:28:42;;;;;;;50.45;22.02;;;;;;;;;;5014351;28;90679;-70
2022/01/29 07:31:09;;;;;;;38.35;23.05;;;;;;;;;;5007904;28;89296;-70
2022/01/29 07:33:35;;;;;;;37.00;19.80;;;;;;;;;;5000552;28;89890;-70
2022/01/29 07:36:02;;;;;;;46.90;22.08;;;;;;;;;;4996482;28;88788;-70
2022/01/29 07:38:29;;;;;;;47.47;21.55;;;;;;;;;;4997313;28;91304;-70
2022/01/29 07:40:55;;;;;;;39.78;20.52;;;;;;;;;;4996630;28;88902;-70
2022/01/29 07:43:21;;;;;;;43.88;19.73;;;;;;;;;;4996896;28;89385;-70
2022/01/29 07:45:48;;;;;;;37.45;19.30;;;;;;;;;;5000830;28;88982;-71
2022/01/29 07:48:14;;;;;;;37.85;18.83;;;;;;;;;;5008405;28;89493;-69
2022/01/29 07:50:40;;;;;;;51.53;20.20;;;;;;;;;;4999369;28;90757;-69
2022/01/29 07:53:07;;;;;;;45.88;20.35;;;;;;;;;;4998943;28;91217;-70
2022/01/29 07:55:33;;;;;;;45.83;21.02;;;;;;;;;;5002821;28;90143;-69
2022/01/29 07:58:01;;;;;;;44.70;17.10;;;;;;;;;;4996226;28;90114;-70
2022/01/29 08:00:33;;;;;;;40.28;17.25;;;;;;;;;;4996551;28;89063;-70
2022/01/29 08:03:00;;;;;;;36.00;17.17;;;;;;;;;;5009163;28;90233;-70
2022/01/29 08:05:26;;;;;;;38.60;17.13;;;;;;;;;;4996552;28;88786;-70
2022/01/29 08:07:52;;;;;;;40.10;17.52;;;;;;;;;;4995547;28;89418;-70
2022/01/29 08:10:19;;;;;;;36.72;16.85;;;;;;;;;;4996751;28;88880;-70
2022/01/29 08:12:45;;;;;;;45.33;18.80;;;;;;;;;;5001615;28;89778;-70
2022/01/29 08:15:11;;;;;;;30.45;15.77;;;;;;;;;;4998690;28;89461;-70
2022/01/29 08:17:38;;;;;;;41.08;17.33;;;;;;;;;;4995676;28;89368;-70
2022/01/29 08:20:04;;;;;;;31.50;15.43;;;;;;;;;;4999659;28;89215;-70
2022/01/29 08:22:30;;;;;;;41.13;15.40;;;;;;;;;;4996155;28;89026;-70
2022/01/29 08:24:57;;;;;;;35.42;15.77;;;;;;;;;;4995030;28;89842;-70
2022/01/29 08:27:23;;;;;;;32.35;15.10;;;;;;;;;;4979368;28;89247;-70
2022/01/29 08:29:50;;;;;;;33.15;14.68;;;;;;;;;;4996513;28;90363;-70
2022/01/29 08:32:16;;;;;;;30.77;15.98;;;;;;;;;;4995223;28;91142;-69
2022/01/29 08:34:46;;;;;;;40.38;15.43;;;;;;;;;;4995500;28;89349;-69
2022/01/29 08:37:12;;;;;;;34.90;16.08;;;;;;;;;;4998916;28;89128;-69
2022/01/29 08:39:39;;;;;;;33.22;14.10;;;;;;;;;;4996796;28;89551;-70
2022/01/29 08:42:05;;;;;;;37.45;14.77;;;;;;;;;;5007100;28;89007;-71
2022/01/29 08:44:32;;;;;;;27.92;13.25;;;;;;;;;;4996025;28;89867;-71
2022/01/29 08:46:58;;;;;;;36.67;14.35;;;;;;;;;;4995054;28;89576;-70
2022/01/29 08:49:25;;;;;;;32.72;14.90;;;;;;;;;;4996592;28;89078;-71
2022/01/29 08:51:52;;;;;;;36.55;15.50;;;;;;;;;;4995378;28;89814;-70
2022/01/29 08:54:18;;;;;;;35.85;14.70;;;;;;;;;;4995512;28;89786;-69
2022/01/29 08:56:44;;;;;;;29.52;14.27;;;;;;;;;;4993999;28;90783;-69
2022/01/29 08:59:11;;;;;;;33.25;14.13;;;;;;;;;;4997307;28;89094;-70
2022/01/29 09:01:37;;;;;;;40.17;13.70;;;;;;;;;;4985135;28;90305;-71
2022/01/29 09:04:03;;;;;;;39.78;13.35;;;;;;;;;;4979278;28;90084;-70
2022/01/29 09:06:30;;;;;;;29.92;12.60;;;;;;;;;;4984297;28;89421;-69
2022/01/29 09:08:56;;;;;;;27.00;11.95;;;;;;;;;;4991133;28;88986;-70
2022/01/29 09:11:23;;;;;;;37.65;12.30;;;;;;;;;;5012835;28;90115;-70
2022/01/29 09:13:49;;;;;;;23.48;10.23;;;;;;;;;;5012653;28;90183;-69
2022/01/29 09:16:15;;;;;;;36.45;12.18;;;;;;;;;;5014108;28;88893;-69
2022/01/29 09:18:42;;;;;;;33.75;11.38;;;;;;;;;;5015989;28;89006;-70
2022/01/29 09:21:08;;;;;;;28.52;10.05;;;;;;;;;;5007706;28;90598;-70
2022/01/29 09:23:35;;;;;;;27.10;11.48;;;;;;;;;;4994923;28;90154;-69
2022/01/29 09:26:01;;;;;;;25.95;10.85;;;;;;;;;;4994357;28;89095;-68
2022/01/29 09:28:28;;;;;;;24.17;8.55;;;;;;;;;;4995472;28;89704;-68
2022/01/29 09:30:54;;;;;;;22.27;7.95;;;;;;;;;;4995249;28;89779;-69
2022/01/29 09:33:20;;;;;;;29.23;8.73;;;;;;;;;;4995194;28;88052;-68
2022/01/29 09:35:47;;;;;;;21.52;7.50;;;;;;;;;;4994855;28;89980;-69
2022/01/29 09:38:14;;;;;;;21.70;7.15;;;;;;;;;;4996232;28;88764;-71
2022/01/29 09:40:41;;;;;;;21.20;7.53;;;;;;;;;;4998558;28;87868;-70
2022/01/29 09:43:09;;;;;;;29.42;8.35;;;;;;;;;;4995493;28;87962;-70
2022/01/29 09:45:35;;;;;;;23.75;6.68;;;;;;;;;;4994242;28;88743;-70
2022/01/29 09:48:03;;;;;;;22.15;6.70;;;;;;;;;;4995696;28;87941;-70
2022/01/29 09:50:31;;;;;;;21.88;6.18;;;;;;;;;;4996001;28;88644;-70
2022/01/29 09:52:59;;;;;;;18.40;5.88;;;;;;;;;;4994430;28;88006;-70
2022/01/29 09:55:26;;;;;;;17.98;6.03;;;;;;;;;;4995690;28;88818;-70
2022/01/29 09:57:54;;;;;;;21.02;5.60;;;;;;;;;;4995120;28;88046;-70
2022/01/29 10:00:21;;;;;;;20.63;5.82;;;;;;;;;;4995001;28;88726;-70
2022/01/29 10:03:05;;;;;;;18.25;6.15;;;;;;;;;;4998501;28;87255;-70
2022/01/29 10:05:40;;;;;;;18.10;6.50;;;;;;;;;;4980582;28;87929;-69
2022/01/29 10:08:07;;;;;;;24.20;5.80;;;;;;;;;;5005679;28;88777;-69
2022/01/29 10:10:38;;;;;;;25.85;5.22;;;;;;;;;;5002503;28;89516;-72
2022/01/29 10:13:22;;;;;;;21.75;5.55;;;;;;;;;;4999274;28;89156;-71
2022/01/29 10:15:49;;;;;;;18.25;5.65;;;;;;;;;;4994097;28;89113;-72
2022/01/29 10:18:22;;;;;;;20.67;5.50;;;;;;;;;;4996083;28;88042;-72
2022/01/29 10:20:50;;;;;;;15.70;4.60;;;;;;;;;;4996036;28;89932;-72
2022/01/29 10:23:16;;;;;;;20.25;4.55;;;;;;;;;;4995681;28;88159;-70
2022/01/29 10:25:49;;;;;;;23.35;5.05;;;;;;;;;;4997648;28;89589;-68
2022/01/29 10:28:17;;;;;;;16.02;3.72;;;;;;;;;;5015096;28;87933;-69
2022/01/29 10:30:50;;;;;;;14.43;3.28;;;;;;;;;;5013892;28;88059;-70
2022/01/29 10:33:22;;;;;;;15.85;4.53;;;;;;;;;;5015517;28;87996;-69
2022/01/29 10:35:50;;;;;;;16.08;3.65;;;;;;;;;;5006874;28;90838;-72
2022/01/29 10:38:21;;;;;;;20.17;3.70;;;;;;;;;;5009215;28;89022;-73
2022/01/29 10:41:06;;;;;;;18.90;4.70;;;;;;;;;;4995377;28;87869;-73
2022/01/29 10:43:33;;;;;;;19.45;4.10;;;;;;;;;;4995067;28;89396;-73
2022/01/29 10:45:59;;;;;;;15.43;3.70;;;;;;;;;;5009186;28;88066;-73
2022/01/29 10:48:42;;;;;;;19.70;4.45;;;;;;;;;;5015405;28;88780;-70
2022/01/29 10:51:12;;;;;;;15.70;3.67;;;;;;;;;;4997917;28;87948;-70
2022/01/29 10:53:38;;;;;;;17.20;3.60;;;;;;;;;;4998707;28;88787;-70
2022/01/29 10:56:05;;;;;;;12.93;2.90;;;;;;;;;;5013452;28;87968;-68
2022/01/29 10:58:41;;;;;;;10.43;2.85;;;;;;;;;;5017958;28;87966;-69
2022/01/29 11:01:17;;;;;;;13.15;3.10;;;;;;;;;;5017792;28;89416;-70
2022/01/29 11:03:44;;;;;;;11.10;2.70;;;;;;;;;;5016882;28;87878;-71
2022/01/29 11:06:12;;;;;;;12.57;2.65;;;;;;;;;;5001903;28;87881;-71
2022/01/29 11:08:39;;;;;;;11.73;3.15;;;;;;;;;;5000315;28;88519;-71
2022/01/29 11:11:09;;;;;;;18.67;3.38;;;;;;;;;;4998805;28;89679;-70
2022/01/29 11:13:55;;;;;;;10.33;3.47;;;;;;;;;;5013637;28;88470;-71
2022/01/29 11:16:22;;;;;;;14.75;3.33;;;;;;;;;;5000628;28;88655;-71
2022/01/29 11:18:48;;;;;;;7.93;2.50;;;;;;;;;;4997621;28;87204;-68
2022/01/29 11:21:15;;;;;;;5.90;1.83;;;;;;;;;;4998457;28;87952;-69
2022/01/29 11:23:42;;;;;;;14.25;2.45;;;;;;;;;;4997203;28;89081;-71
2022/01/29 11:26:08;;;;;;;11.10;2.22;;;;;;;;;;5011546;28;89466;-71
2022/01/29 11:28:35;;;;;;;9.85;2.42;;;;;;;;;;5016062;28;89390;-71
2022/01/29 11:31:11;;;;;;;12.27;1.98;;;;;;;;;;5015787;28;88808;-72
2022/01/29 11:33:55;;;;;;;13.90;2.72;;;;;;;;;;4987684;28;89922;-69
2022/01/29 11:36:21;;;;;;;13.27;2.50;;;;;;;;;;4994606;28;88547;-70
2022/01/29 11:38:47;;;;;;;5.95;1.70;;;;;;;;;;5001275;28;88236;-70
2022/01/29 11:41:14;;;;;;;14.70;2.53;;;;;;;;;;5010677;28;89937;-69
2022/01/29 11:43:40;;;;;;;13.30;2.35;;;;;;;;;;5004577;28;88212;-70
2022/01/29 11:46:16;;;;;;;9.27;2.60;;;;;;;;;;5000145;28;88272;-69
2022/01/29 11:48:51;;;;;;;18.25;2.45;;;;;;;;;;4997932;28;88763;-69
2022/01/29 11:51:36;;;;;;;10.23;2.13;;;;;;;;;;4997969;28;88754;-68
2022/01/29 11:54:02;;;;;;;8.60;2.58;;;;;;;;;;5000262;28;88066;-68
2022/01/29 11:56:30;;;;;;;10.45;2.60;;;;;;;;;;5015423;28;88782;-68
2022/01/29 11:59:16;;;;;;;12.35;2.50;;;;;;;;;;5016324;28;88041;-68
2022/01/29 12:01:43;;;;;;;12.15;2.85;;;;;;;;;;5010826;28;88789;-68
2022/01/29 12:04:10;;;;;;;7.43;2.20;;;;;;;;;;4996232;28;88042;-68
2022/01/29 12:06:42;;;;;;;10.23;2.40;;;;;;;;;;5002995;28;88874;-68
2022/01/29 12:09:12;;;;;;;7.40;2.10;;;;;;;;;;5007142;28;87432;-68
2022/01/29 12:11:39;;;;;;;8.93;2.40;;;;;;;;;;5017093;28;87864;-68
2022/01/29 12:14:11;;;;;;;13.13;2.35;;;;;;;;;;5005588;28;88401;-68
2022/01/29 12:16:57;;;;;;;8.27;2.50;;;;;;;;;;5001128;28;88974;-68
2022/01/29 12:19:33;;;;;;;10.50;2.58;;;;;;;;;;4997444;28;87978;-69
2022/01/29 12:22:19;;;;;;;7.85;2.75;;;;;;;;;;4996779;28;88955;-69
2022/01/29 12:24:49;;;;;;;10.77;2.65;;;;;;;;;;4996626;28;88765;-68
2022/01/29 12:27:16;;;;;;;11.52;2.13;;;;;;;;;;4995461;28;87948;-68
2022/01/29 12:29:42;;;;;;;12.93;2.50;;;;;;;;;;4997066;28;87854;-68
2022/01/29 12:32:10;;;;;;;8.98;1.98;;;;;;;;;;4996982;28;90022;-68
2022/01/29 12:34:51;;;;;;;10.40;2.13;;;;;;;;;;4998693;28;87567;-68
2022/01/29 12:37:20;;;;;;;8.60;2.78;;;;;;;;;;4997365;28;88137;-68
2022/01/29 12:39:50;;;;;;;7.50;1.95;;;;;;;;;;4998682;28;88789;-69
2022/01/29 12:44:57;;;;;;;14.00;2.10;;;;;;;;;;5002675;28;119577;-70
2022/01/29 12:47:26;;;;;;;10.88;2.05;;;;;;;;;;4996913;28;88062;-70
2022/01/29 12:49:53;;;;;;;5.43;1.92;;;;;;;;;;5007082;28;87937;-69
2022/01/29 12:52:20;;;;;;;11.90;2.67;;;;;;;;;;5002011;28;87994;-69
2022/01/29 12:54:58;;;;;;;12.85;2.08;;;;;;;;;;4995860;28;88217;-69
2022/01/29 12:57:25;;;;;;;10.63;2.58;;;;;;;;;;4988107;28;91763;-69
2022/01/29 12:59:51;;;;;;;9.70;3.63;;;;;;;;;;4976510;28;88033;-69
2022/01/29 13:02:36;;;;;;;7.57;2.75;;;;;;;;;;4985577;28;88293;-69
2022/01/29 13:05:04;;;;;;;9.15;2.65;;;;;;;;;;4996442;28;87867;-69
2022/01/29 13:07:34;;;;;;;8.93;2.10;;;;;;;;;;4995853;28;88797;-69
2022/01/29 13:10:00;;;;;;;11.73;3.13;;;;;;;;;;4995622;28;89810;-70
2022/01/29 13:12:26;;;;;;;11.82;2.65;;;;;;;;;;4991781;28;90089;-70
2022/01/29 13:14:52;;;;;;;7.28;2.22;;;;;;;;;;5007482;28;87956;-69
2022/01/29 13:17:20;;;;;;;9.63;2.88;;;;;;;;;;5016316;28;87924;-68
2022/01/29 13:19:47;;;;;;;6.55;2.15;;;;;;;;;;5014776;28;87978;-69
2022/01/29 13:22:13;;;;;;;5.88;1.80;;;;;;;;;;5008016;28;89434;-70
2022/01/29 13:24:48;;;;;;;5.82;1.67;;;;;;;;;;5007280;28;87259;-69
2022/01/29 13:27:15;;;;;;;12.73;2.72;;;;;;;;;;4996606;28;87988;-70
2022/01/29 13:29:46;;;;;;;9.48;1.95;;;;;;;;;;4996518;28;88756;-70
2022/01/29 13:32:13;;;;;;;6.32;1.98;;;;;;;;;;4996084;28;89642;-70
2022/01/29 13:34:41;;;;;;;5.00;2.10;;;;;;;;;;4996463;28;88017;-70
2022/01/29 13:37:26;;;;;;;11.65;2.47;;;;;;;;;;4997282;28;87921;-69
2022/01/29 13:39:53;;;;;;;18.33;2.92;;;;;;;;;;4995749;28;88628;-68
2022/01/29 13:42:20;;;;;;;6.50;1.95;;;;;;;;;;4996762;28;88093;-70
2022/01/29 13:45:05;;;;;;;9.55;2.65;;;;;;;;;;4999165;28;88767;-73
2022/01/29 13:47:32;;;;;;;11.57;2.85;;;;;;;;;;4982268;28;87975;-73
2022/01/29 13:50:19;;;;;;;11.73;2.47;;;;;;;;;;4995764;28;88682;-72
2022/01/29 13:52:56;;;;;;;8.20;2.00;;;;;;;;;;5006280;28;89055;-69
2022/01/29 13:55:22;;;;;;;10.10;3.00;;;;;;;;;;4997399;28;88325;-70
2022/01/29 13:58:03;;;;;;;12.20;2.35;;;;;;;;;;5009959;28;88893;-70
2022/01/29 14:00:49;;;;;;;10.88;2.10;;;;;;;;;;4996426;28;87902;-69
2022/01/29 14:03:16;;;;;;;9.18;1.80;;;;;;;;;;4996595;28;87950;-68
2022/01/29 14:05:42;;;;;;;7.18;1.92;;;;;;;;;;5005755;28;89191;-70
2022/01/29 14:08:16;;;;;;;15.35;2.40;;;;;;;;;;4992205;28;90113;-68
2022/01/29 14:10:42;;;;;;;8.90;2.13;;;;;;;;;;4999737;28;87970;-68
2022/01/29 14:13:09;;;;;;;9.77;1.73;;;;;;;;;;4987828;28;90084;-68
2022/01/29 14:15:35;;;;;;;13.77;1.90;;;;;;;;;;4995583;28;88887;-68
2022/01/29 14:18:05;;;;;;;11.75;1.85;;;;;;;;;;5002093;28;88013;-68
2022/01/29 14:20:33;;;;;;;8.77;2.60;;;;;;;;;;4995869;28;87901;-67
2022/01/29 14:22:59;;;;;;;12.20;2.13;;;;;;;;;;4994480;28;88855;-68
2022/01/29 14:25:25;;;;;;;9.18;1.67;;;;;;;;;;5005921;28;88356;-68
2022/01/29 14:27:55;;;;;;;11.90;2.72;;;;;;;;;;5002902;28;89053;-68
2022/01/29 14:30:21;;;;;;;8.63;2.08;;;;;;;;;;5010420;28;89068;-68
2022/01/29 14:32:47;;;;;;;9.18;2.03;;;;;;;;;;5018506;28;89061;-68
2022/01/29 14:35:14;;;;;;;11.35;2.22;;;;;;;;;;5004336;28;88093;-69
2022/01/29 14:37:41;;;;;;;12.27;2.03;;;;;;;;;;4998363;28;89832;-66
2022/01/29 14:40:12;;;;;;;14.68;2.75;;;;;;;;;;5006237;28;87407;-67
2022/01/29 14:42:40;;;;;;;14.15;2.45;;;;;;;;;;4998184;28;87954;-68
2022/01/29 14:45:07;;;;;;;8.50;1.75;;;;;;;;;;5003895;28;89867;-67